sensor_id;sensor_type;location;lat;lon;timestamp;P1;durP1;ratioP1;P2;durP2;ratioP2
13238;SDS011;6686;51.292;4.166;2023-04-15T00:02:00;5.50;;;3.30;;
13238;SDS011;6686;51.292;4.166;2023-04-15T00:04:46;4.97;;;3.60;;
13238;SDS011;6686;51.292;4.166;2023-04-15T00:07:32;6.80;;;3.63;;
13238;SDS011;6686;51.292;4.166;2023-04-15T00:10:19;4.07;;;3.67;;
13238;SDS011;6686;51.292;4.166;2023-04-15T00:13:05;5.80;;;3.30;;
13238;SDS011;6686;51.292;4.166;2023-04-15T00:15:51;5.03;;;3.40;;
13238;SDS011;6686;51.292;4.166;2023-04-15T00:18:37;7.87;;;4.00;;
13238;SDS011;6686;51.292;4.166;2023-04-15T00:21:23;4.47;;;3.97;;
13238;SDS011;6686;51.292;4.166;2023-04-15T00:24:09;6.97;;;3.30;;
13238;SDS011;6686;51.292;4.166;2023-04-15T00:26:55;7.03;;;3.90;;
13238;SDS011;6686;51.292;4.166;2023-04-15T00:29:40;6.37;;;3.43;;
13238;SDS011;6686;51.292;4.166;2023-04-15T00:32:26;3.20;;;2.87;;
13238;SDS011;6686;51.292;4.166;2023-04-15T00:35:12;3.67;;;3.23;;
13238;SDS011;6686;51.292;4.166;2023-04-15T00:37:57;5.40;;;3.23;;
13238;SDS011;6686;51.292;4.166;2023-04-15T00:40:43;3.83;;;3.33;;
13238;SDS011;6686;51.292;4.166;2023-04-15T00:43:29;7.47;;;3.53;;
13238;SDS011;6686;51.292;4.166;2023-04-15T00:46:15;4.10;;;3.50;;
13238;SDS011;6686;51.292;4.166;2023-04-15T00:49:01;4.10;;;3.30;;
13238;SDS011;6686;51.292;4.166;2023-04-15T00:51:47;4.13;;;3.20;;
13238;SDS011;6686;51.292;4.166;2023-04-15T00:54:34;4.93;;;3.37;;
13238;SDS011;6686;51.292;4.166;2023-04-15T00:57:20;4.97;;;3.20;;
13238;SDS011;6686;51.292;4.166;2023-04-15T01:00:05;6.23;;;3.53;;
13238;SDS011;6686;51.292;4.166;2023-04-15T01:02:51;6.73;;;3.50;;
13238;SDS011;6686;51.292;4.166;2023-04-15T01:05:37;3.67;;;3.27;;
13238;SDS011;6686;51.292;4.166;2023-04-15T01:08:26;5.53;;;3.20;;
13238;SDS011;6686;51.292;4.166;2023-04-15T01:11:12;4.83;;;3.17;;
13238;SDS011;6686;51.292;4.166;2023-04-15T01:13:57;6.30;;;3.93;;
13238;SDS011;6686;51.292;4.166;2023-04-15T01:16:43;4.80;;;3.70;;
13238;SDS011;6686;51.292;4.166;2023-04-15T01:19:29;4.73;;;3.50;;
13238;SDS011;6686;51.292;4.166;2023-04-15T01:22:15;3.87;;;3.47;;
13238;SDS011;6686;51.292;4.166;2023-04-15T01:25:03;5.25;;;3.33;;
13238;SDS011;6686;51.292;4.166;2023-04-15T01:27:47;5.37;;;3.40;;
13238;SDS011;6686;51.292;4.166;2023-04-15T01:30:33;5.53;;;3.67;;
13238;SDS011;6686;51.292;4.166;2023-04-15T01:33:19;4.33;;;3.60;;
13238;SDS011;6686;51.292;4.166;2023-04-15T01:36:05;3.80;;;3.40;;
13238;SDS011;6686;51.292;4.166;2023-04-15T01:38:51;5.27;;;3.40;;
13238;SDS011;6686;51.292;4.166;2023-04-15T01:41:37;3.97;;;3.13;;
13238;SDS011;6686;51.292;4.166;2023-04-15T01:44:23;7.13;;;3.17;;
13238;SDS011;6686;51.292;4.166;2023-04-15T01:47:09;5.17;;;3.20;;
13238;SDS011;6686;51.292;4.166;2023-04-15T01:49:55;4.07;;;3.67;;
13238;SDS011;6686;51.292;4.166;2023-04-15T01:52:41;6.60;;;3.60;;
13238;SDS011;6686;51.292;4.166;2023-04-15T01:55:27;4.37;;;3.58;;
13238;SDS011;6686;51.292;4.166;2023-04-15T01:58:13;4.53;;;3.70;;
13238;SDS011;6686;51.292;4.166;2023-04-15T02:00:59;6.33;;;3.03;;
13238;SDS011;6686;51.292;4.166;2023-04-15T02:03:45;5.97;;;3.13;;
13238;SDS011;6686;51.292;4.166;2023-04-15T02:06:30;4.17;;;3.00;;
13238;SDS011;6686;51.292;4.166;2023-04-15T02:09:16;4.50;;;3.87;;
13238;SDS011;6686;51.292;4.166;2023-04-15T02:12:02;5.70;;;3.10;;
13238;SDS011;6686;51.292;4.166;2023-04-15T02:14:48;4.07;;;3.13;;
13238;SDS011;6686;51.292;4.166;2023-04-15T02:17:34;4.63;;;3.00;;
13238;SDS011;6686;51.292;4.166;2023-04-15T02:20:19;5.00;;;3.10;;
13238;SDS011;6686;51.292;4.166;2023-04-15T02:23:05;5.27;;;3.60;;
13238;SDS011;6686;51.292;4.166;2023-04-15T02:25:51;3.50;;;3.13;;
13238;SDS011;6686;51.292;4.166;2023-04-15T02:28:37;5.10;;;3.33;;
13238;SDS011;6686;51.292;4.166;2023-04-15T02:31:23;6.80;;;3.87;;
13238;SDS011;6686;51.292;4.166;2023-04-15T02:34:09;4.53;;;3.40;;
13238;SDS011;6686;51.292;4.166;2023-04-15T02:36:55;4.27;;;3.50;;
13238;SDS011;6686;51.292;4.166;2023-04-15T02:39:41;4.27;;;3.57;;
13238;SDS011;6686;51.292;4.166;2023-04-15T02:42:27;9.23;;;7.37;;
13238;SDS011;6686;51.292;4.166;2023-04-15T02:45:13;4.97;;;3.83;;
13238;SDS011;6686;51.292;4.166;2023-04-15T02:47:59;5.10;;;4.40;;
13238;SDS011;6686;51.292;4.166;2023-04-15T02:50:45;5.97;;;4.30;;
13238;SDS011;6686;51.292;4.166;2023-04-15T02:53:30;4.13;;;3.70;;
13238;SDS011;6686;51.292;4.166;2023-04-15T02:56:16;6.07;;;4.03;;
13238;SDS011;6686;51.292;4.166;2023-04-15T02:59:02;7.68;;;5.30;;
13238;SDS011;6686;51.292;4.166;2023-04-15T03:01:48;6.97;;;5.00;;
13238;SDS011;6686;51.292;4.166;2023-04-15T03:04:34;5.83;;;4.33;;
13238;SDS011;6686;51.292;4.166;2023-04-15T03:07:20;7.30;;;4.60;;
13238;SDS011;6686;51.292;4.166;2023-04-15T03:10:06;8.37;;;4.60;;
13238;SDS011;6686;51.292;4.166;2023-04-15T03:12:52;9.47;;;5.03;;
13238;SDS011;6686;51.292;4.166;2023-04-15T03:15:37;6.50;;;4.60;;
13238;SDS011;6686;51.292;4.166;2023-04-15T03:18:23;8.77;;;4.63;;
13238;SDS011;6686;51.292;4.166;2023-04-15T03:21:09;7.27;;;4.73;;
13238;SDS011;6686;51.292;4.166;2023-04-15T03:23:55;8.40;;;4.73;;
13238;SDS011;6686;51.292;4.166;2023-04-15T03:26:41;9.00;;;4.87;;
13238;SDS011;6686;51.292;4.166;2023-04-15T03:29:27;7.23;;;5.17;;
13238;SDS011;6686;51.292;4.166;2023-04-15T03:32:13;6.68;;;5.10;;
13238;SDS011;6686;51.292;4.166;2023-04-15T03:34:58;7.03;;;4.83;;
13238;SDS011;6686;51.292;4.166;2023-04-15T03:37:44;7.53;;;4.77;;
13238;SDS011;6686;51.292;4.166;2023-04-15T03:40:30;6.33;;;4.33;;
13238;SDS011;6686;51.292;4.166;2023-04-15T03:43:16;8.07;;;4.67;;
13238;SDS011;6686;51.292;4.166;2023-04-15T03:46:02;6.47;;;5.27;;
13238;SDS011;6686;51.292;4.166;2023-04-15T03:48:47;8.47;;;4.93;;
13238;SDS011;6686;51.292;4.166;2023-04-15T03:51:33;8.33;;;5.30;;
13238;SDS011;6686;51.292;4.166;2023-04-15T03:54:22;7.77;;;5.50;;
13238;SDS011;6686;51.292;4.166;2023-04-15T03:57:08;10.07;;;5.63;;
13238;SDS011;6686;51.292;4.166;2023-04-15T03:59:54;10.30;;;5.27;;
13238;SDS011;6686;51.292;4.166;2023-04-15T04:02:40;8.87;;;5.80;;
13238;SDS011;6686;51.292;4.166;2023-04-15T04:05:26;8.47;;;5.37;;
13238;SDS011;6686;51.292;4.166;2023-04-15T04:08:12;11.03;;;6.27;;
13238;SDS011;6686;51.292;4.166;2023-04-15T04:10:58;8.63;;;6.73;;
13238;SDS011;6686;51.292;4.166;2023-04-15T04:13:44;12.20;;;6.97;;
13238;SDS011;6686;51.292;4.166;2023-04-15T04:16:30;11.63;;;6.60;;
13238;SDS011;6686;51.292;4.166;2023-04-15T04:19:16;7.93;;;5.77;;
13238;SDS011;6686;51.292;4.166;2023-04-15T04:22:02;11.50;;;6.40;;
13238;SDS011;6686;51.292;4.166;2023-04-15T04:24:48;10.37;;;5.80;;
13238;SDS011;6686;51.292;4.166;2023-04-15T04:27:34;9.83;;;6.17;;
13238;SDS011;6686;51.292;4.166;2023-04-15T04:30:20;6.57;;;5.83;;
13238;SDS011;6686;51.292;4.166;2023-04-15T04:33:06;8.07;;;6.47;;
13238;SDS011;6686;51.292;4.166;2023-04-15T04:35:52;11.00;;;7.32;;
13238;SDS011;6686;51.292;4.166;2023-04-15T04:38:38;10.67;;;6.83;;
13238;SDS011;6686;51.292;4.166;2023-04-15T04:41:24;10.50;;;6.80;;
13238;SDS011;6686;51.292;4.166;2023-04-15T04:44:10;15.57;;;6.27;;
13238;SDS011;6686;51.292;4.166;2023-04-15T04:46:56;10.90;;;7.27;;
13238;SDS011;6686;51.292;4.166;2023-04-15T04:49:42;7.43;;;5.97;;
13238;SDS011;6686;51.292;4.166;2023-04-15T04:52:28;11.80;;;7.30;;
13238;SDS011;6686;51.292;4.166;2023-04-15T04:55:14;10.03;;;6.67;;
13238;SDS011;6686;51.292;4.166;2023-04-15T04:58:00;7.37;;;6.17;;
13238;SDS011;6686;51.292;4.166;2023-04-15T05:00:46;8.33;;;5.83;;
13238;SDS011;6686;51.292;4.166;2023-04-15T05:03:31;11.30;;;6.23;;
13238;SDS011;6686;51.292;4.166;2023-04-15T05:06:17;8.70;;;6.83;;
13238;SDS011;6686;51.292;4.166;2023-04-15T05:09:03;10.63;;;6.37;;
13238;SDS011;6686;51.292;4.166;2023-04-15T05:11:49;10.03;;;6.67;;
13238;SDS011;6686;51.292;4.166;2023-04-15T05:14:34;8.00;;;6.60;;
13238;SDS011;6686;51.292;4.166;2023-04-15T05:17:20;9.03;;;6.60;;
13238;SDS011;6686;51.292;4.166;2023-04-15T05:20:06;10.97;;;7.03;;
13238;SDS011;6686;51.292;4.166;2023-04-15T05:22:52;9.80;;;6.77;;
13238;SDS011;6686;51.292;4.166;2023-04-15T05:25:38;8.70;;;6.80;;
13238;SDS011;6686;51.292;4.166;2023-04-15T05:28:24;9.27;;;7.30;;
13238;SDS011;6686;51.292;4.166;2023-04-15T05:31:10;10.07;;;6.73;;
13238;SDS011;6686;51.292;4.166;2023-04-15T05:33:56;9.27;;;6.80;;
13238;SDS011;6686;51.292;4.166;2023-04-15T05:36:41;9.97;;;6.43;;
13238;SDS011;6686;51.292;4.166;2023-04-15T05:39:27;10.18;;;7.72;;
13238;SDS011;6686;51.292;4.166;2023-04-15T05:42:13;11.07;;;6.90;;
13238;SDS011;6686;51.292;4.166;2023-04-15T05:44:59;11.70;;;8.07;;
13238;SDS011;6686;51.292;4.166;2023-04-15T05:47:45;12.97;;;6.80;;
13238;SDS011;6686;51.292;4.166;2023-04-15T05:50:31;11.77;;;7.63;;
13238;SDS011;6686;51.292;4.166;2023-04-15T05:53:17;10.00;;;6.33;;
13238;SDS011;6686;51.292;4.166;2023-04-15T05:56:03;7.70;;;6.80;;
13238;SDS011;6686;51.292;4.166;2023-04-15T05:58:49;10.17;;;7.70;;
13238;SDS011;6686;51.292;4.166;2023-04-15T06:01:35;8.93;;;7.53;;
13238;SDS011;6686;51.292;4.166;2023-04-15T06:04:21;7.57;;;6.80;;
13238;SDS011;6686;51.292;4.166;2023-04-15T06:07:07;8.03;;;7.23;;
13238;SDS011;6686;51.292;4.166;2023-04-15T06:09:53;13.53;;;8.33;;
13238;SDS011;6686;51.292;4.166;2023-04-15T06:12:39;12.40;;;9.30;;
13238;SDS011;6686;51.292;4.166;2023-04-15T06:15:25;13.30;;;8.27;;
13238;SDS011;6686;51.292;4.166;2023-04-15T06:18:10;11.83;;;8.27;;
13238;SDS011;6686;51.292;4.166;2023-04-15T06:20:56;9.03;;;7.63;;
13238;SDS011;6686;51.292;4.166;2023-04-15T06:23:42;13.27;;;8.20;;
13238;SDS011;6686;51.292;4.166;2023-04-15T06:26:28;9.90;;;8.20;;
13238;SDS011;6686;51.292;4.166;2023-04-15T06:29:14;10.60;;;9.03;;
13238;SDS011;6686;51.292;4.166;2023-04-15T06:32:00;11.53;;;8.33;;
13238;SDS011;6686;51.292;4.166;2023-04-15T06:34:46;13.18;;;10.05;;
13238;SDS011;6686;51.292;4.166;2023-04-15T06:37:31;12.23;;;8.97;;
13238;SDS011;6686;51.292;4.166;2023-04-15T06:40:17;9.70;;;8.63;;
13238;SDS011;6686;51.292;4.166;2023-04-15T06:43:04;13.03;;;9.07;;
13238;SDS011;6686;51.292;4.166;2023-04-15T06:45:49;14.13;;;10.10;;
13238;SDS011;6686;51.292;4.166;2023-04-15T06:48:35;14.03;;;8.83;;
13238;SDS011;6686;51.292;4.166;2023-04-15T06:51:21;12.43;;;9.40;;
13238;SDS011;6686;51.292;4.166;2023-04-15T06:54:07;15.67;;;10.47;;
13238;SDS011;6686;51.292;4.166;2023-04-15T06:56:53;13.27;;;11.02;;
13238;SDS011;6686;51.292;4.166;2023-04-15T06:59:39;11.67;;;9.70;;
13238;SDS011;6686;51.292;4.166;2023-04-15T07:02:25;16.37;;;10.47;;
13238;SDS011;6686;51.292;4.166;2023-04-15T07:05:11;10.27;;;8.87;;
13238;SDS011;6686;51.292;4.166;2023-04-15T07:07:57;11.03;;;8.30;;
13238;SDS011;6686;51.292;4.166;2023-04-15T07:10:43;11.87;;;8.10;;
13238;SDS011;6686;51.292;4.166;2023-04-15T07:13:29;9.60;;;7.97;;
13238;SDS011;6686;51.292;4.166;2023-04-15T07:16:15;9.60;;;8.10;;
13238;SDS011;6686;51.292;4.166;2023-04-15T07:19:00;12.17;;;8.30;;
13238;SDS011;6686;51.292;4.166;2023-04-15T07:21:46;10.50;;;8.27;;
13238;SDS011;6686;51.292;4.166;2023-04-15T07:24:32;9.87;;;7.67;;
13238;SDS011;6686;51.292;4.166;2023-04-15T07:27:19;10.90;;;8.10;;
13238;SDS011;6686;51.292;4.166;2023-04-15T07:30:05;11.83;;;7.73;;
13238;SDS011;6686;51.292;4.166;2023-04-15T07:32:50;9.67;;;7.50;;
13238;SDS011;6686;51.292;4.166;2023-04-15T07:35:36;8.43;;;7.60;;
13238;SDS011;6686;51.292;4.166;2023-04-15T07:38:22;9.65;;;8.43;;
13238;SDS011;6686;51.292;4.166;2023-04-15T07:41:08;9.53;;;8.00;;
13238;SDS011;6686;51.292;4.166;2023-04-15T07:43:55;11.87;;;8.00;;
13238;SDS011;6686;51.292;4.166;2023-04-15T07:46:41;11.23;;;8.33;;
13238;SDS011;6686;51.292;4.166;2023-04-15T07:49:26;11.37;;;8.17;;
13238;SDS011;6686;51.292;4.166;2023-04-15T07:52:12;10.65;;;9.10;;
13238;SDS011;6686;51.292;4.166;2023-04-15T07:54:58;10.25;;;8.60;;
13238;SDS011;6686;51.292;4.166;2023-04-15T07:57:44;11.30;;;8.00;;
13238;SDS011;6686;51.292;4.166;2023-04-15T08:00:30;9.87;;;7.93;;
13238;SDS011;6686;51.292;4.166;2023-04-15T08:03:15;9.37;;;8.10;;
13238;SDS011;6686;51.292;4.166;2023-04-15T08:06:01;11.68;;;8.93;;
13238;SDS011;6686;51.292;4.166;2023-04-15T08:08:47;10.35;;;8.57;;
13238;SDS011;6686;51.292;4.166;2023-04-15T08:11:33;10.43;;;8.57;;
13238;SDS011;6686;51.292;4.166;2023-04-15T08:14:19;12.03;;;8.80;;
13238;SDS011;6686;51.292;4.166;2023-04-15T08:17:04;9.17;;;8.03;;
13238;SDS011;6686;51.292;4.166;2023-04-15T08:19:51;10.87;;;8.13;;
13238;SDS011;6686;51.292;4.166;2023-04-15T08:22:37;9.80;;;8.00;;
13238;SDS011;6686;51.292;4.166;2023-04-15T08:25:22;10.98;;;9.27;;
13238;SDS011;6686;51.292;4.166;2023-04-15T08:28:08;8.87;;;8.00;;
13238;SDS011;6686;51.292;4.166;2023-04-15T08:30:54;9.00;;;7.37;;
13238;SDS011;6686;51.292;4.166;2023-04-15T08:33:40;9.37;;;7.57;;
13238;SDS011;6686;51.292;4.166;2023-04-15T08:36:26;9.90;;;7.20;;
13238;SDS011;6686;51.292;4.166;2023-04-15T08:39:12;8.83;;;6.70;;
13238;SDS011;6686;51.292;4.166;2023-04-15T08:42:02;8.73;;;7.07;;
13238;SDS011;6686;51.292;4.166;2023-04-15T08:44:48;7.70;;;6.07;;
13238;SDS011;6686;51.292;4.166;2023-04-15T08:47:34;7.67;;;6.27;;
13238;SDS011;6686;51.292;4.166;2023-04-15T08:50:20;7.40;;;5.47;;
13238;SDS011;6686;51.292;4.166;2023-04-15T08:53:06;10.13;;;5.80;;
13238;SDS011;6686;51.292;4.166;2023-04-15T08:55:51;8.33;;;6.17;;
13238;SDS011;6686;51.292;4.166;2023-04-15T08:58:37;7.82;;;6.35;;
13238;SDS011;6686;51.292;4.166;2023-04-15T09:01:23;7.80;;;6.20;;
13238;SDS011;6686;51.292;4.166;2023-04-15T09:04:10;7.10;;;5.83;;
13238;SDS011;6686;51.292;4.166;2023-04-15T09:06:55;6.60;;;4.97;;
13238;SDS011;6686;51.292;4.166;2023-04-15T09:09:41;6.05;;;4.47;;
13238;SDS011;6686;51.292;4.166;2023-04-15T09:12:27;5.03;;;4.53;;
13238;SDS011;6686;51.292;4.166;2023-04-15T09:15:13;6.63;;;4.83;;
13238;SDS011;6686;51.292;4.166;2023-04-15T09:17:59;5.97;;;5.37;;
13238;SDS011;6686;51.292;4.166;2023-04-15T09:20:45;6.07;;;4.77;;
13238;SDS011;6686;51.292;4.166;2023-04-15T09:23:31;7.37;;;5.17;;
13238;SDS011;6686;51.292;4.166;2023-04-15T09:26:16;7.33;;;4.67;;
13238;SDS011;6686;51.292;4.166;2023-04-15T09:29:05;4.90;;;4.10;;
13238;SDS011;6686;51.292;4.166;2023-04-15T09:31:55;8.23;;;4.80;;
13238;SDS011;6686;51.292;4.166;2023-04-15T09:34:41;5.60;;;3.70;;
13238;SDS011;6686;51.292;4.166;2023-04-15T09:37:36;5.83;;;4.53;;
13238;SDS011;6686;51.292;4.166;2023-04-15T09:43:17;4.87;;;4.07;;
13238;SDS011;6686;51.292;4.166;2023-04-15T09:46:03;6.00;;;4.30;;
13238;SDS011;6686;51.292;4.166;2023-04-15T09:49:05;5.03;;;4.47;;
13238;SDS011;6686;51.292;4.166;2023-04-15T09:51:34;4.97;;;3.63;;
13238;SDS011;6686;51.292;4.166;2023-04-15T09:54:20;5.23;;;3.83;;
13238;SDS011;6686;51.292;4.166;2023-04-15T09:57:09;5.53;;;3.80;;
13238;SDS011;6686;51.292;4.166;2023-04-15T09:59:54;5.67;;;3.87;;
13238;SDS011;6686;51.292;4.166;2023-04-15T10:02:40;4.73;;;3.83;;
13238;SDS011;6686;51.292;4.166;2023-04-15T10:05:26;5.43;;;4.17;;
13238;SDS011;6686;51.292;4.166;2023-04-15T10:08:12;5.23;;;4.00;;
13238;SDS011;6686;51.292;4.166;2023-04-15T10:10:59;5.17;;;4.53;;
13238;SDS011;6686;51.292;4.166;2023-04-15T10:13:44;5.73;;;4.93;;
13238;SDS011;6686;51.292;4.166;2023-04-15T10:16:30;7.00;;;5.57;;
13238;SDS011;6686;51.292;4.166;2023-04-15T10:19:17;7.17;;;5.07;;
13238;SDS011;6686;51.292;4.166;2023-04-15T10:22:03;6.20;;;5.10;;
13238;SDS011;6686;51.292;4.166;2023-04-15T10:24:49;8.60;;;5.23;;
13238;SDS011;6686;51.292;4.166;2023-04-15T10:27:35;7.05;;;5.70;;
13238;SDS011;6686;51.292;4.166;2023-04-15T10:30:21;5.67;;;4.70;;
13238;SDS011;6686;51.292;4.166;2023-04-15T10:33:07;5.10;;;4.40;;
13238;SDS011;6686;51.292;4.166;2023-04-15T10:35:53;4.43;;;3.50;;
13238;SDS011;6686;51.292;4.166;2023-04-15T10:38:39;3.90;;;3.37;;
13238;SDS011;6686;51.292;4.166;2023-04-15T10:41:25;4.93;;;4.13;;
13238;SDS011;6686;51.292;4.166;2023-04-15T10:44:10;4.47;;;3.90;;
13238;SDS011;6686;51.292;4.166;2023-04-15T10:46:56;7.10;;;5.57;;
13238;SDS011;6686;51.292;4.166;2023-04-15T10:49:51;7.17;;;5.60;;
13238;SDS011;6686;51.292;4.166;2023-04-15T10:52:39;5.93;;;4.97;;
13238;SDS011;6686;51.292;4.166;2023-04-15T10:55:28;5.77;;;4.43;;
13238;SDS011;6686;51.292;4.166;2023-04-15T10:58:12;4.93;;;4.30;;
13238;SDS011;6686;51.292;4.166;2023-04-15T11:00:58;5.17;;;3.60;;
13238;SDS011;6686;51.292;4.166;2023-04-15T11:03:44;6.07;;;4.30;;
13238;SDS011;6686;51.292;4.166;2023-04-15T11:06:42;6.27;;;5.30;;
13238;SDS011;6686;51.292;4.166;2023-04-15T11:09:29;6.63;;;4.87;;
13238;SDS011;6686;51.292;4.166;2023-04-15T11:12:17;4.70;;;4.23;;
13238;SDS011;6686;51.292;4.166;2023-04-15T11:18:20;5.00;;;4.50;;
13238;SDS011;6686;51.292;4.166;2023-04-15T11:21:05;5.50;;;4.50;;
13238;SDS011;6686;51.292;4.166;2023-04-15T11:23:51;4.20;;;3.77;;
13238;SDS011;6686;51.292;4.166;2023-04-15T11:26:37;4.93;;;3.93;;
13238;SDS011;6686;51.292;4.166;2023-04-15T11:29:27;6.40;;;4.10;;
13238;SDS011;6686;51.292;4.166;2023-04-15T11:32:09;5.80;;;4.57;;
13238;SDS011;6686;51.292;4.166;2023-04-15T11:34:55;7.50;;;6.33;;
13238;SDS011;6686;51.292;4.166;2023-04-15T11:37:40;7.25;;;5.47;;
13238;SDS011;6686;51.292;4.166;2023-04-15T11:40:27;6.67;;;5.10;;
13238;SDS011;6686;51.292;4.166;2023-04-15T11:43:19;5.37;;;4.10;;
13238;SDS011;6686;51.292;4.166;2023-04-15T11:46:04;6.00;;;4.03;;
13238;SDS011;6686;51.292;4.166;2023-04-15T11:48:51;5.53;;;4.85;;
13238;SDS011;6686;51.292;4.166;2023-04-15T11:51:37;5.87;;;3.93;;
13238;SDS011;6686;51.292;4.166;2023-04-15T11:54:23;4.57;;;3.53;;
13238;SDS011;6686;51.292;4.166;2023-04-15T11:57:08;4.13;;;2.83;;
13238;SDS011;6686;51.292;4.166;2023-04-15T11:59:54;3.00;;;2.70;;
13238;SDS011;6686;51.292;4.166;2023-04-15T12:02:40;3.90;;;2.87;;
13238;SDS011;6686;51.292;4.166;2023-04-15T12:05:26;3.80;;;2.57;;
13238;SDS011;6686;51.292;4.166;2023-04-15T12:08:11;4.53;;;3.07;;
13238;SDS011;6686;51.292;4.166;2023-04-15T12:10:58;4.83;;;3.03;;
13238;SDS011;6686;51.292;4.166;2023-04-15T12:13:43;4.57;;;3.40;;
13238;SDS011;6686;51.292;4.166;2023-04-15T12:16:29;4.13;;;3.50;;
13238;SDS011;6686;51.292;4.166;2023-04-15T12:19:21;4.87;;;3.10;;
13238;SDS011;6686;51.292;4.166;2023-04-15T12:22:10;4.00;;;2.87;;
13238;SDS011;6686;51.292;4.166;2023-04-15T12:24:55;3.73;;;2.70;;
13238;SDS011;6686;51.292;4.166;2023-04-15T12:27:40;3.60;;;3.07;;
13238;SDS011;6686;51.292;4.166;2023-04-15T12:30:26;4.90;;;2.83;;
13238;SDS011;6686;51.292;4.166;2023-04-15T12:33:12;5.77;;;2.90;;
13238;SDS011;6686;51.292;4.166;2023-04-15T12:35:58;3.50;;;2.93;;
13238;SDS011;6686;51.292;4.166;2023-04-15T12:38:44;5.50;;;3.62;;
13238;SDS011;6686;51.292;4.166;2023-04-15T12:41:30;6.87;;;4.13;;
13238;SDS011;6686;51.292;4.166;2023-04-15T12:44:26;5.07;;;3.53;;
13238;SDS011;6686;51.292;4.166;2023-04-15T12:47:06;4.68;;;3.85;;
13238;SDS011;6686;51.292;4.166;2023-04-15T12:49:49;3.77;;;2.90;;
13238;SDS011;6686;51.292;4.166;2023-04-15T12:52:38;3.17;;;2.20;;
13238;SDS011;6686;51.292;4.166;2023-04-15T12:55:24;2.13;;;1.60;;
13238;SDS011;6686;51.292;4.166;2023-04-15T12:58:16;2.53;;;1.73;;
13238;SDS011;6686;51.292;4.166;2023-04-15T13:01:02;2.90;;;1.60;;
13238;SDS011;6686;51.292;4.166;2023-04-15T13:03:50;1.97;;;1.80;;
13238;SDS011;6686;51.292;4.166;2023-04-15T13:06:36;4.80;;;2.30;;
13238;SDS011;6686;51.292;4.166;2023-04-15T13:09:22;3.17;;;2.53;;
13238;SDS011;6686;51.292;4.166;2023-04-15T13:12:08;3.77;;;2.70;;
13238;SDS011;6686;51.292;4.166;2023-04-15T13:14:54;3.77;;;2.50;;
13238;SDS011;6686;51.292;4.166;2023-04-15T13:17:41;4.37;;;2.67;;
13238;SDS011;6686;51.292;4.166;2023-04-15T13:20:26;4.70;;;3.30;;
13238;SDS011;6686;51.292;4.166;2023-04-15T13:23:12;3.93;;;2.77;;
13238;SDS011;6686;51.292;4.166;2023-04-15T13:25:58;3.67;;;3.30;;
13238;SDS011;6686;51.292;4.166;2023-04-15T13:28:45;4.97;;;3.43;;
13238;SDS011;6686;51.292;4.166;2023-04-15T13:31:31;5.97;;;3.43;;
13238;SDS011;6686;51.292;4.166;2023-04-15T13:34:17;4.43;;;3.70;;
13238;SDS011;6686;51.292;4.166;2023-04-15T13:37:06;5.00;;;3.20;;
13238;SDS011;6686;51.292;4.166;2023-04-15T13:39:52;5.60;;;3.10;;
13238;SDS011;6686;51.292;4.166;2023-04-15T13:42:38;4.20;;;3.37;;
13238;SDS011;6686;51.292;4.166;2023-04-15T13:45:24;7.30;;;4.30;;
13238;SDS011;6686;51.292;4.166;2023-04-15T13:48:10;7.03;;;4.10;;
13238;SDS011;6686;51.292;4.166;2023-04-15T13:50:56;7.57;;;5.07;;
13238;SDS011;6686;51.292;4.166;2023-04-15T13:53:42;8.05;;;5.80;;
13238;SDS011;6686;51.292;4.166;2023-04-15T13:56:28;10.27;;;5.27;;
13238;SDS011;6686;51.292;4.166;2023-04-15T13:59:14;6.97;;;5.00;;
13238;SDS011;6686;51.292;4.166;2023-04-15T14:02:00;6.90;;;5.07;;
13238;SDS011;6686;51.292;4.166;2023-04-15T14:04:46;8.97;;;5.60;;
13238;SDS011;6686;51.292;4.166;2023-04-15T14:07:32;7.83;;;5.03;;
13238;SDS011;6686;51.292;4.166;2023-04-15T14:10:17;7.87;;;4.93;;
13238;SDS011;6686;51.292;4.166;2023-04-15T14:13:03;8.20;;;5.13;;
13238;SDS011;6686;51.292;4.166;2023-04-15T14:15:49;5.83;;;4.63;;
13238;SDS011;6686;51.292;4.166;2023-04-15T14:18:35;7.43;;;4.77;;
13238;SDS011;6686;51.292;4.166;2023-04-15T14:21:21;6.07;;;4.50;;
13238;SDS011;6686;51.292;4.166;2023-04-15T14:24:07;8.97;;;5.13;;
13238;SDS011;6686;51.292;4.166;2023-04-15T14:26:53;8.57;;;4.57;;
13238;SDS011;6686;51.292;4.166;2023-04-15T14:29:38;7.23;;;5.10;;
13238;SDS011;6686;51.292;4.166;2023-04-15T14:32:25;6.85;;;5.45;;
13238;SDS011;6686;51.292;4.166;2023-04-15T14:35:10;8.15;;;4.95;;
13238;SDS011;6686;51.292;4.166;2023-04-15T14:37:56;5.87;;;4.47;;
13238;SDS011;6686;51.292;4.166;2023-04-15T14:40:42;8.30;;;4.67;;
13238;SDS011;6686;51.292;4.166;2023-04-15T14:43:28;9.47;;;4.37;;
13238;SDS011;6686;51.292;4.166;2023-04-15T14:46:13;9.50;;;4.20;;
13238;SDS011;6686;51.292;4.166;2023-04-15T14:48:59;8.50;;;4.37;;
13238;SDS011;6686;51.292;4.166;2023-04-15T14:51:45;5.90;;;3.87;;
13238;SDS011;6686;51.292;4.166;2023-04-15T14:54:31;6.75;;;4.30;;
13238;SDS011;6686;51.292;4.166;2023-04-15T14:57:17;6.27;;;3.83;;
13238;SDS011;6686;51.292;4.166;2023-04-15T15:00:03;7.78;;;4.12;;
13238;SDS011;6686;51.292;4.166;2023-04-15T15:02:49;6.47;;;3.80;;
13238;SDS011;6686;51.292;4.166;2023-04-15T15:05:35;4.47;;;3.13;;
13238;SDS011;6686;51.292;4.166;2023-04-15T15:08:21;8.27;;;4.00;;
13238;SDS011;6686;51.292;4.166;2023-04-15T15:11:07;4.20;;;3.23;;
13238;SDS011;6686;51.292;4.166;2023-04-15T15:13:53;5.17;;;3.67;;
13238;SDS011;6686;51.292;4.166;2023-04-15T15:16:39;7.00;;;2.90;;
13238;SDS011;6686;51.292;4.166;2023-04-15T15:19:25;5.90;;;2.90;;
13238;SDS011;6686;51.292;4.166;2023-04-15T15:22:10;5.50;;;3.20;;
13238;SDS011;6686;51.292;4.166;2023-04-15T15:24:56;5.83;;;3.20;;
13238;SDS011;6686;51.292;4.166;2023-04-15T15:27:42;5.53;;;3.03;;
13238;SDS011;6686;51.292;4.166;2023-04-15T15:30:28;6.67;;;3.13;;
13238;SDS011;6686;51.292;4.166;2023-04-15T15:33:14;4.10;;;2.87;;
13238;SDS011;6686;51.292;4.166;2023-04-15T15:36:00;3.30;;;2.77;;
13238;SDS011;6686;51.292;4.166;2023-04-15T15:38:46;5.30;;;3.17;;
13238;SDS011;6686;51.292;4.166;2023-04-15T15:41:32;6.10;;;3.12;;
13238;SDS011;6686;51.292;4.166;2023-04-15T15:44:18;6.85;;;3.20;;
13238;SDS011;6686;51.292;4.166;2023-04-15T15:47:04;8.20;;;2.73;;
13238;SDS011;6686;51.292;4.166;2023-04-15T15:49:49;5.57;;;2.40;;
13238;SDS011;6686;51.292;4.166;2023-04-15T15:52:35;4.03;;;2.70;;
13238;SDS011;6686;51.292;4.166;2023-04-15T15:55:21;3.93;;;2.53;;
13238;SDS011;6686;51.292;4.166;2023-04-15T15:58:10;7.70;;;3.00;;
13238;SDS011;6686;51.292;4.166;2023-04-15T16:00:56;9.50;;;3.30;;
13238;SDS011;6686;51.292;4.166;2023-04-15T16:03:42;4.53;;;2.90;;
13238;SDS011;6686;51.292;4.166;2023-04-15T16:06:28;3.63;;;2.60;;
13238;SDS011;6686;51.292;4.166;2023-04-15T16:09:13;7.07;;;2.70;;
13238;SDS011;6686;51.292;4.166;2023-04-15T16:12:00;3.30;;;2.67;;
13238;SDS011;6686;51.292;4.166;2023-04-15T16:14:46;3.63;;;2.50;;
13238;SDS011;6686;51.292;4.166;2023-04-15T16:17:31;7.00;;;2.70;;
13238;SDS011;6686;51.292;4.166;2023-04-15T16:20:17;6.83;;;3.00;;
13238;SDS011;6686;51.292;4.166;2023-04-15T16:23:10;6.17;;;2.87;;
13238;SDS011;6686;51.292;4.166;2023-04-15T16:25:52;5.93;;;2.80;;
13238;SDS011;6686;51.292;4.166;2023-04-15T16:28:38;4.20;;;2.63;;
13238;SDS011;6686;51.292;4.166;2023-04-15T16:31:24;4.53;;;2.67;;
13238;SDS011;6686;51.292;4.166;2023-04-15T16:34:10;10.03;;;3.43;;
13238;SDS011;6686;51.292;4.166;2023-04-15T16:36:57;6.87;;;3.10;;
13238;SDS011;6686;51.292;4.166;2023-04-15T16:39:43;6.03;;;3.00;;
13238;SDS011;6686;51.292;4.166;2023-04-15T16:42:28;5.75;;;3.70;;
13238;SDS011;6686;51.292;4.166;2023-04-15T16:45:15;6.90;;;3.77;;
13238;SDS011;6686;51.292;4.166;2023-04-15T16:48:00;5.07;;;3.30;;
13238;SDS011;6686;51.292;4.166;2023-04-15T16:50:46;7.10;;;3.67;;
13238;SDS011;6686;51.292;4.166;2023-04-15T16:53:32;6.30;;;3.20;;
13238;SDS011;6686;51.292;4.166;2023-04-15T16:56:18;7.40;;;3.13;;
13238;SDS011;6686;51.292;4.166;2023-04-15T16:59:03;4.43;;;3.60;;